sensor_id;sensor_type;location;lat;lon;timestamp;P1;durP1;ratioP1;P2;durP2;ratioP2
56399;SDS011;42298;53.638;9.876;2023-02-04T00:00:11;4.80;;;1.63;;
56399;SDS011;42298;53.638;9.876;2023-02-04T00:02:41;2.13;;;1.50;;
56399;SDS011;42298;53.638;9.876;2023-02-04T00:05:07;3.70;;;1.90;;
56399;SDS011;42298;53.638;9.876;2023-02-04T00:07:33;7.47;;;1.80;;
56399;SDS011;42298;53.638;9.876;2023-02-04T00:09:59;3.53;;;2.20;;
56399;SDS011;42298;53.638;9.876;2023-02-04T00:12:25;3.70;;;1.50;;
56399;SDS011;42298;53.638;9.876;2023-02-04T00:14:50;5.37;;;1.57;;
56399;SDS011;42298;53.638;9.876;2023-02-04T00:17:15;5.03;;;1.77;;
56399;SDS011;42298;53.638;9.876;2023-02-04T00:19:41;1.97;;;1.60;;
56399;SDS011;42298;53.638;9.876;2023-02-04T00:22:07;3.20;;;1.60;;
56399;SDS011;42298;53.638;9.876;2023-02-04T00:24:36;3.50;;;1.50;;
56399;SDS011;42298;53.638;9.876;2023-02-04T00:27:02;2.97;;;1.67;;
56399;SDS011;42298;53.638;9.876;2023-02-04T00:29:28;3.00;;;1.80;;
56399;SDS011;42298;53.638;9.876;2023-02-04T00:31:53;4.70;;;1.70;;
56399;SDS011;42298;53.638;9.876;2023-02-04T00:34:19;3.57;;;1.83;;
56399;SDS011;42298;53.638;9.876;2023-02-04T00:36:44;2.43;;;1.60;;
56399;SDS011;42298;53.638;9.876;2023-02-04T00:39:10;2.77;;;1.60;;
56399;SDS011;42298;53.638;9.876;2023-02-04T00:41:36;3.03;;;1.50;;
56399;SDS011;42298;53.638;9.876;2023-02-04T00:44:01;3.00;;;1.70;;
56399;SDS011;42298;53.638;9.876;2023-02-04T00:46:27;4.97;;;1.80;;
56399;SDS011;42298;53.638;9.876;2023-02-04T00:48:52;3.20;;;1.70;;
56399;SDS011;42298;53.638;9.876;2023-02-04T00:51:17;4.57;;;1.80;;
56399;SDS011;42298;53.638;9.876;2023-02-04T00:53:43;2.73;;;1.70;;
56399;SDS011;42298;53.638;9.876;2023-02-04T00:56:08;3.40;;;1.77;;
56399;SDS011;42298;53.638;9.876;2023-02-04T00:58:33;2.77;;;1.50;;
56399;SDS011;42298;53.638;9.876;2023-02-04T01:01:00;4.17;;;1.77;;
56399;SDS011;42298;53.638;9.876;2023-02-04T01:03:25;3.93;;;1.60;;
56399;SDS011;42298;53.638;9.876;2023-02-04T01:05:51;5.50;;;2.20;;
56399;SDS011;42298;53.638;9.876;2023-02-04T01:08:16;3.13;;;1.97;;
56399;SDS011;42298;53.638;9.876;2023-02-04T01:10:41;4.50;;;1.90;;
56399;SDS011;42298;53.638;9.876;2023-02-04T01:13:07;5.37;;;1.87;;
56399;SDS011;42298;53.638;9.876;2023-02-04T01:15:33;4.83;;;1.83;;
56399;SDS011;42298;53.638;9.876;2023-02-04T01:17:59;4.73;;;1.90;;
56399;SDS011;42298;53.638;9.876;2023-02-04T01:20:24;3.50;;;1.87;;
56399;SDS011;42298;53.638;9.876;2023-02-04T01:22:52;4.13;;;1.90;;
56399;SDS011;42298;53.638;9.876;2023-02-04T01:25:17;3.60;;;2.00;;
56399;SDS011;42298;53.638;9.876;2023-02-04T01:27:43;4.83;;;2.30;;
56399;SDS011;42298;53.638;9.876;2023-02-04T01:30:09;5.07;;;2.17;;
56399;SDS011;42298;53.638;9.876;2023-02-04T01:32:36;3.87;;;1.80;;
56399;SDS011;42298;53.638;9.876;2023-02-04T01:35:01;3.77;;;1.80;;
56399;SDS011;42298;53.638;9.876;2023-02-04T01:37:27;3.17;;;1.70;;
56399;SDS011;42298;53.638;9.876;2023-02-04T01:39:52;4.73;;;2.20;;
56399;SDS011;42298;53.638;9.876;2023-02-04T01:42:18;2.80;;;1.97;;
56399;SDS011;42298;53.638;9.876;2023-02-04T01:44:44;2.90;;;1.93;;
56399;SDS011;42298;53.638;9.876;2023-02-04T01:47:09;4.43;;;2.07;;
56399;SDS011;42298;53.638;9.876;2023-02-04T01:49:35;5.73;;;2.10;;
56399;SDS011;42298;53.638;9.876;2023-02-04T01:52:00;2.73;;;2.00;;
56399;SDS011;42298;53.638;9.876;2023-02-04T01:54:27;4.77;;;2.20;;
56399;SDS011;42298;53.638;9.876;2023-02-04T01:56:52;5.63;;;2.23;;
56399;SDS011;42298;53.638;9.876;2023-02-04T01:59:19;4.20;;;1.90;;
56399;SDS011;42298;53.638;9.876;2023-02-04T02:01:49;2.00;;;1.80;;
56399;SDS011;42298;53.638;9.876;2023-02-04T02:04:17;5.20;;;2.07;;
56399;SDS011;42298;53.638;9.876;2023-02-04T02:06:48;4.67;;;2.00;;
56399;SDS011;42298;53.638;9.876;2023-02-04T02:09:17;2.27;;;1.87;;
56399;SDS011;42298;53.638;9.876;2023-02-04T02:11:43;3.30;;;2.27;;
56399;SDS011;42298;53.638;9.876;2023-02-04T02:14:08;4.07;;;2.10;;
56399;SDS011;42298;53.638;9.876;2023-02-04T02:16:34;3.57;;;2.00;;
56399;SDS011;42298;53.638;9.876;2023-02-04T02:19:00;3.33;;;2.10;;
56399;SDS011;42298;53.638;9.876;2023-02-04T02:21:29;6.40;;;3.40;;
56399;SDS011;42298;53.638;9.876;2023-02-04T02:26:55;3.83;;;2.40;;
56399;SDS011;42298;53.638;9.876;2023-02-04T02:29:23;3.53;;;2.17;;
56399;SDS011;42298;53.638;9.876;2023-02-04T02:31:49;3.40;;;2.20;;
56399;SDS011;42298;53.638;9.876;2023-02-04T02:34:15;4.87;;;2.23;;
56399;SDS011;42298;53.638;9.876;2023-02-04T02:36:41;2.93;;;2.10;;
56399;SDS011;42298;53.638;9.876;2023-02-04T02:39:06;4.30;;;2.27;;
56399;SDS011;42298;53.638;9.876;2023-02-04T02:41:33;3.17;;;2.23;;
56399;SDS011;42298;53.638;9.876;2023-02-04T02:43:59;5.67;;;1.80;;
56399;SDS011;42298;53.638;9.876;2023-02-04T02:46:25;3.00;;;2.00;;
56399;SDS011;42298;53.638;9.876;2023-02-04T02:48:50;3.47;;;1.80;;
56399;SDS011;42298;53.638;9.876;2023-02-04T02:51:16;2.73;;;1.90;;
56399;SDS011;42298;53.638;9.876;2023-02-04T02:53:47;4.07;;;2.00;;
56399;SDS011;42298;53.638;9.876;2023-02-04T02:56:13;2.60;;;1.80;;
56399;SDS011;42298;53.638;9.876;2023-02-04T02:58:39;4.07;;;2.00;;
56399;SDS011;42298;53.638;9.876;2023-02-04T03:01:05;2.80;;;2.17;;
56399;SDS011;42298;53.638;9.876;2023-02-04T03:03:33;4.50;;;2.20;;
56399;SDS011;42298;53.638;9.876;2023-02-04T03:06:06;2.93;;;2.00;;
56399;SDS011;42298;53.638;9.876;2023-02-04T03:08:36;3.47;;;2.00;;
56399;SDS011;42298;53.638;9.876;2023-02-04T03:11:03;5.07;;;2.13;;
56399;SDS011;42298;53.638;9.876;2023-02-04T03:13:29;3.13;;;2.33;;
56399;SDS011;42298;53.638;9.876;2023-02-04T03:15:55;4.80;;;2.40;;
56399;SDS011;42298;53.638;9.876;2023-02-04T03:18:21;4.83;;;2.33;;
56399;SDS011;42298;53.638;9.876;2023-02-04T03:20:48;4.90;;;2.60;;
56399;SDS011;42298;53.638;9.876;2023-02-04T03:23:15;3.97;;;2.33;;
56399;SDS011;42298;53.638;9.876;2023-02-04T03:25:42;4.07;;;2.47;;
56399;SDS011;42298;53.638;9.876;2023-02-04T03:28:08;4.17;;;2.47;;
56399;SDS011;42298;53.638;9.876;2023-02-04T03:30:33;2.63;;;2.00;;
56399;SDS011;42298;53.638;9.876;2023-02-04T03:32:58;3.10;;;1.97;;
56399;SDS011;42298;53.638;9.876;2023-02-04T03:35:24;3.87;;;2.30;;
56399;SDS011;42298;53.638;9.876;2023-02-04T03:37:49;3.87;;;2.20;;
56399;SDS011;42298;53.638;9.876;2023-02-04T03:40:15;3.47;;;2.30;;
56399;SDS011;42298;53.638;9.876;2023-02-04T03:42:40;3.33;;;2.40;;
56399;SDS011;42298;53.638;9.876;2023-02-04T03:45:06;3.50;;;2.50;;
56399;SDS011;42298;53.638;9.876;2023-02-04T03:47:31;3.53;;;2.50;;
56399;SDS011;42298;53.638;9.876;2023-02-04T03:49:57;3.87;;;2.33;;
56399;SDS011;42298;53.638;9.876;2023-02-04T03:52:22;4.30;;;2.60;;
56399;SDS011;42298;53.638;9.876;2023-02-04T03:54:47;4.37;;;2.50;;
56399;SDS011;42298;53.638;9.876;2023-02-04T03:57:13;4.83;;;2.50;;
56399;SDS011;42298;53.638;9.876;2023-02-04T03:59:40;3.47;;;2.20;;
56399;SDS011;42298;53.638;9.876;2023-02-04T04:02:05;5.90;;;2.73;;
56399;SDS011;42298;53.638;9.876;2023-02-04T04:04:31;5.50;;;2.73;;
56399;SDS011;42298;53.638;9.876;2023-02-04T04:06:56;5.73;;;2.50;;
56399;SDS011;42298;53.638;9.876;2023-02-04T04:09:22;5.40;;;2.50;;
56399;SDS011;42298;53.638;9.876;2023-02-04T04:11:47;4.00;;;2.57;;
56399;SDS011;42298;53.638;9.876;2023-02-04T04:14:13;5.17;;;2.83;;
56399;SDS011;42298;53.638;9.876;2023-02-04T04:16:38;4.20;;;2.70;;
56399;SDS011;42298;53.638;9.876;2023-02-04T04:19:03;6.00;;;2.60;;
56399;SDS011;42298;53.638;9.876;2023-02-04T04:21:29;4.43;;;2.67;;
56399;SDS011;42298;53.638;9.876;2023-02-04T04:23:54;5.13;;;2.53;;
56399;SDS011;42298;53.638;9.876;2023-02-04T04:26:20;5.13;;;2.60;;
56399;SDS011;42298;53.638;9.876;2023-02-04T04:28:45;6.80;;;3.10;;
56399;SDS011;42298;53.638;9.876;2023-02-04T04:31:11;5.67;;;2.80;;
56399;SDS011;42298;53.638;9.876;2023-02-04T04:33:36;6.03;;;3.10;;
56399;SDS011;42298;53.638;9.876;2023-02-04T04:36:03;4.47;;;2.60;;
56399;SDS011;42298;53.638;9.876;2023-02-04T04:38:28;4.87;;;2.90;;
56399;SDS011;42298;53.638;9.876;2023-02-04T04:40:54;5.13;;;3.00;;
56399;SDS011;42298;53.638;9.876;2023-02-04T04:43:19;4.57;;;3.10;;
56399;SDS011;42298;53.638;9.876;2023-02-04T04:45:45;6.60;;;2.60;;
56399;SDS011;42298;53.638;9.876;2023-02-04T04:48:10;4.50;;;2.67;;
56399;SDS011;42298;53.638;9.876;2023-02-04T04:50:35;4.90;;;2.80;;
56399;SDS011;42298;53.638;9.876;2023-02-04T04:53:01;5.53;;;2.70;;
56399;SDS011;42298;53.638;9.876;2023-02-04T04:55:26;5.07;;;2.73;;
56399;SDS011;42298;53.638;9.876;2023-02-04T04:57:52;5.47;;;2.90;;
56399;SDS011;42298;53.638;9.876;2023-02-04T05:00:18;5.43;;;2.90;;
56399;SDS011;42298;53.638;9.876;2023-02-04T05:02:44;4.63;;;2.60;;
56399;SDS011;42298;53.638;9.876;2023-02-04T05:05:10;6.00;;;3.00;;
56399;SDS011;42298;53.638;9.876;2023-02-04T05:07:37;4.67;;;2.60;;
56399;SDS011;42298;53.638;9.876;2023-02-04T05:10:02;4.20;;;2.70;;
56399;SDS011;42298;53.638;9.876;2023-02-04T05:12:28;5.37;;;2.80;;
56399;SDS011;42298;53.638;9.876;2023-02-04T05:14:53;5.03;;;2.97;;
56399;SDS011;42298;53.638;9.876;2023-02-04T05:17:19;5.50;;;2.80;;
56399;SDS011;42298;53.638;9.876;2023-02-04T05:19:44;7.23;;;3.07;;
56399;SDS011;42298;53.638;9.876;2023-02-04T05:22:09;6.40;;;3.20;;
56399;SDS011;42298;53.638;9.876;2023-02-04T05:24:35;4.90;;;2.60;;
56399;SDS011;42298;53.638;9.876;2023-02-04T05:27:00;5.63;;;2.70;;
56399;SDS011;42298;53.638;9.876;2023-02-04T05:29:26;4.67;;;2.73;;
56399;SDS011;42298;53.638;9.876;2023-02-04T05:31:51;5.07;;;3.07;;
56399;SDS011;42298;53.638;9.876;2023-02-04T05:34:16;7.80;;;2.90;;
56399;SDS011;42298;53.638;9.876;2023-02-04T05:36:43;3.87;;;2.77;;
56399;SDS011;42298;53.638;9.876;2023-02-04T05:39:08;5.83;;;2.93;;
56399;SDS011;42298;53.638;9.876;2023-02-04T05:41:34;5.63;;;2.73;;
56399;SDS011;42298;53.638;9.876;2023-02-04T05:43:59;5.53;;;3.10;;
56399;SDS011;42298;53.638;9.876;2023-02-04T05:46:24;4.37;;;2.77;;
56399;SDS011;42298;53.638;9.876;2023-02-04T05:48:50;5.00;;;2.87;;
56399;SDS011;42298;53.638;9.876;2023-02-04T05:51:15;5.30;;;3.03;;
56399;SDS011;42298;53.638;9.876;2023-02-04T05:53:41;7.30;;;3.20;;
56399;SDS011;42298;53.638;9.876;2023-02-04T05:56:06;4.13;;;2.97;;
56399;SDS011;42298;53.638;9.876;2023-02-04T05:58:32;4.23;;;2.70;;
56399;SDS011;42298;53.638;9.876;2023-02-04T06:01:02;4.67;;;2.77;;
56399;SDS011;42298;53.638;9.876;2023-02-04T06:03:28;6.00;;;3.00;;
56399;SDS011;42298;53.638;9.876;2023-02-04T06:05:54;6.33;;;3.00;;
56399;SDS011;42298;53.638;9.876;2023-02-04T06:08:20;7.77;;;3.43;;
56399;SDS011;42298;53.638;9.876;2023-02-04T06:10:45;5.40;;;2.90;;
56399;SDS011;42298;53.638;9.876;2023-02-04T06:13:11;5.30;;;2.67;;
56399;SDS011;42298;53.638;9.876;2023-02-04T06:15:37;6.80;;;2.80;;
56399;SDS011;42298;53.638;9.876;2023-02-04T06:18:03;6.90;;;3.33;;
56399;SDS011;42298;53.638;9.876;2023-02-04T06:20:28;5.17;;;2.70;;
56399;SDS011;42298;53.638;9.876;2023-02-04T06:22:54;4.10;;;2.87;;
56399;SDS011;42298;53.638;9.876;2023-02-04T06:25:20;5.00;;;2.80;;
56399;SDS011;42298;53.638;9.876;2023-02-04T06:27:46;4.63;;;2.63;;
56399;SDS011;42298;53.638;9.876;2023-02-04T06:30:12;5.03;;;2.90;;
56399;SDS011;42298;53.638;9.876;2023-02-04T06:32:38;5.17;;;2.83;;
56399;SDS011;42298;53.638;9.876;2023-02-04T06:35:04;7.83;;;2.97;;
56399;SDS011;42298;53.638;9.876;2023-02-04T06:37:30;6.10;;;3.17;;
56399;SDS011;42298;53.638;9.876;2023-02-04T06:39:55;4.47;;;2.90;;
56399;SDS011;42298;53.638;9.876;2023-02-04T06:42:21;8.43;;;3.50;;
56399;SDS011;42298;53.638;9.876;2023-02-04T06:44:47;5.93;;;3.40;;
56399;SDS011;42298;53.638;9.876;2023-02-04T06:47:12;6.93;;;3.40;;
56399;SDS011;42298;53.638;9.876;2023-02-04T06:49:38;6.37;;;3.00;;
56399;SDS011;42298;53.638;9.876;2023-02-04T06:52:03;6.80;;;3.80;;
56399;SDS011;42298;53.638;9.876;2023-02-04T06:54:29;5.93;;;3.17;;
56399;SDS011;42298;53.638;9.876;2023-02-04T06:56:55;5.07;;;3.20;;
56399;SDS011;42298;53.638;9.876;2023-02-04T06:59:21;5.43;;;2.87;;
56399;SDS011;42298;53.638;9.876;2023-02-04T07:01:47;4.00;;;2.97;;
56399;SDS011;42298;53.638;9.876;2023-02-04T07:04:12;5.17;;;2.77;;
56399;SDS011;42298;53.638;9.876;2023-02-04T07:06:38;4.93;;;3.20;;
56399;SDS011;42298;53.638;9.876;2023-02-04T07:09:03;4.37;;;2.80;;
56399;SDS011;42298;53.638;9.876;2023-02-04T07:11:28;6.80;;;2.97;;
56399;SDS011;42298;53.638;9.876;2023-02-04T07:13:54;5.37;;;3.10;;
56399;SDS011;42298;53.638;9.876;2023-02-04T07:16:19;5.70;;;3.43;;
56399;SDS011;42298;53.638;9.876;2023-02-04T07:18:44;6.03;;;3.47;;
56399;SDS011;42298;53.638;9.876;2023-02-04T07:21:10;7.83;;;3.63;;
56399;SDS011;42298;53.638;9.876;2023-02-04T07:23:35;6.80;;;3.43;;
56399;SDS011;42298;53.638;9.876;2023-02-04T07:26:00;7.03;;;3.60;;
56399;SDS011;42298;53.638;9.876;2023-02-04T07:28:26;5.47;;;3.00;;
56399;SDS011;42298;53.638;9.876;2023-02-04T07:30:51;8.00;;;3.70;;
56399;SDS011;42298;53.638;9.876;2023-02-04T07:33:17;5.93;;;3.07;;
56399;SDS011;42298;53.638;9.876;2023-02-04T07:35:42;5.53;;;3.27;;
56399;SDS011;42298;53.638;9.876;2023-02-04T07:38:08;6.60;;;3.10;;
56399;SDS011;42298;53.638;9.876;2023-02-04T07:40:33;7.77;;;4.17;;
56399;SDS011;42298;53.638;9.876;2023-02-04T07:42:59;8.10;;;4.80;;
56399;SDS011;42298;53.638;9.876;2023-02-04T07:45:25;6.70;;;3.93;;
56399;SDS011;42298;53.638;9.876;2023-02-04T07:47:50;7.17;;;4.20;;
56399;SDS011;42298;53.638;9.876;2023-02-04T07:50:15;7.73;;;4.03;;
56399;SDS011;42298;53.638;9.876;2023-02-04T07:52:41;7.40;;;3.73;;
56399;SDS011;42298;53.638;9.876;2023-02-04T07:55:06;6.23;;;3.80;;
56399;SDS011;42298;53.638;9.876;2023-02-04T07:57:33;6.50;;;3.87;;
56399;SDS011;42298;53.638;9.876;2023-02-04T07:59:59;7.27;;;3.77;;
56399;SDS011;42298;53.638;9.876;2023-02-04T08:02:24;8.37;;;4.30;;
56399;SDS011;42298;53.638;9.876;2023-02-04T08:04:50;7.87;;;4.23;;
56399;SDS011;42298;53.638;9.876;2023-02-04T08:07:16;8.03;;;4.20;;
56399;SDS011;42298;53.638;9.876;2023-02-04T08:09:41;6.60;;;3.90;;
56399;SDS011;42298;53.638;9.876;2023-02-04T08:12:06;8.87;;;4.20;;
56399;SDS011;42298;53.638;9.876;2023-02-04T08:14:32;6.93;;;3.73;;
56399;SDS011;42298;53.638;9.876;2023-02-04T08:16:57;9.40;;;4.17;;
56399;SDS011;42298;53.638;9.876;2023-02-04T08:19:22;10.40;;;4.50;;
56399;SDS011;42298;53.638;9.876;2023-02-04T08:21:48;9.23;;;4.60;;
56399;SDS011;42298;53.638;9.876;2023-02-04T08:24:14;10.30;;;4.30;;
56399;SDS011;42298;53.638;9.876;2023-02-04T08:26:40;9.93;;;4.73;;
56399;SDS011;42298;53.638;9.876;2023-02-04T08:29:07;10.10;;;4.40;;
56399;SDS011;42298;53.638;9.876;2023-02-04T08:31:33;11.70;;;5.70;;
56399;SDS011;42298;53.638;9.876;2023-02-04T08:33:58;14.10;;;6.87;;
56399;SDS011;42298;53.638;9.876;2023-02-04T08:36:24;13.70;;;7.33;;
56399;SDS011;42298;53.638;9.876;2023-02-04T08:38:49;10.40;;;5.33;;
56399;SDS011;42298;53.638;9.876;2023-02-04T08:41:14;10.90;;;5.30;;
56399;SDS011;42298;53.638;9.876;2023-02-04T08:43:40;8.33;;;5.07;;
56399;SDS011;42298;53.638;9.876;2023-02-04T08:46:06;9.50;;;4.60;;
56399;SDS011;42298;53.638;9.876;2023-02-04T08:48:31;7.30;;;4.20;;
56399;SDS011;42298;53.638;9.876;2023-02-04T08:50:57;9.97;;;4.53;;
56399;SDS011;42298;53.638;9.876;2023-02-04T08:53:22;8.27;;;3.83;;
56399;SDS011;42298;53.638;9.876;2023-02-04T08:55:47;8.63;;;4.47;;
56399;SDS011;42298;53.638;9.876;2023-02-04T08:58:13;7.63;;;4.07;;
56399;SDS011;42298;53.638;9.876;2023-02-04T09:00:38;8.73;;;4.20;;
56399;SDS011;42298;53.638;9.876;2023-02-04T09:03:05;8.63;;;4.00;;
56399;SDS011;42298;53.638;9.876;2023-02-04T09:05:30;8.33;;;4.07;;
56399;SDS011;42298;53.638;9.876;2023-02-04T09:07:56;5.73;;;3.50;;
56399;SDS011;42298;53.638;9.876;2023-02-04T09:10:21;6.07;;;3.30;;
56399;SDS011;42298;53.638;9.876;2023-02-04T09:12:46;7.50;;;3.70;;
56399;SDS011;42298;53.638;9.876;2023-02-04T09:15:12;5.33;;;2.97;;
56399;SDS011;42298;53.638;9.876;2023-02-04T09:17:38;10.33;;;4.00;;
56399;SDS011;42298;53.638;9.876;2023-02-04T09:20:04;7.17;;;3.20;;
56399;SDS011;42298;53.638;9.876;2023-02-04T09:22:30;7.50;;;3.60;;
56399;SDS011;42298;53.638;9.876;2023-02-04T09:24:55;6.33;;;3.10;;
56399;SDS011;42298;53.638;9.876;2023-02-04T09:27:21;7.20;;;2.90;;
56399;SDS011;42298;53.638;9.876;2023-02-04T09:29:46;7.43;;;2.97;;
56399;SDS011;42298;53.638;9.876;2023-02-04T09:32:12;6.00;;;2.90;;
56399;SDS011;42298;53.638;9.876;2023-02-04T09:34:37;8.33;;;3.47;;
56399;SDS011;42298;53.638;9.876;2023-02-04T09:37:02;7.30;;;3.20;;
56399;SDS011;42298;53.638;9.876;2023-02-04T09:39:28;6.30;;;2.40;;
56399;SDS011;42298;53.638;9.876;2023-02-04T09:41:53;5.83;;;2.67;;
56399;SDS011;42298;53.638;9.876;2023-02-04T09:44:19;4.03;;;2.43;;
56399;SDS011;42298;53.638;9.876;2023-02-04T09:46:47;6.73;;;2.97;;
56399;SDS011;42298;53.638;9.876;2023-02-04T09:49:14;7.67;;;2.80;;
56399;SDS011;42298;53.638;9.876;2023-02-04T09:51:40;6.53;;;2.80;;
56399;SDS011;42298;53.638;9.876;2023-02-04T09:54:10;5.63;;;2.50;;
56399;SDS011;42298;53.638;9.876;2023-02-04T09:56:38;5.90;;;2.93;;
56399;SDS011;42298;53.638;9.876;2023-02-04T09:59:20;5.93;;;2.57;;
56399;SDS011;42298;53.638;9.876;2023-02-04T10:02:00;7.33;;;3.50;;
56399;SDS011;42298;53.638;9.876;2023-02-04T10:04:26;6.40;;;2.80;;
56399;SDS011;42298;53.638;9.876;2023-02-04T10:06:53;5.97;;;2.77;;
56399;SDS011;42298;53.638;9.876;2023-02-04T10:09:22;4.67;;;2.10;;
56399;SDS011;42298;53.638;9.876;2023-02-04T10:11:47;4.77;;;2.53;;
56399;SDS011;42298;53.638;9.876;2023-02-04T10:14:14;6.43;;;2.33;;
56399;SDS011;42298;53.638;9.876;2023-02-04T10:16:44;6.93;;;2.43;;
56399;SDS011;42298;53.638;9.876;2023-02-04T10:19:16;6.33;;;2.70;;
56399;SDS011;42298;53.638;9.876;2023-02-04T10:21:44;3.97;;;2.10;;
56399;SDS011;42298;53.638;9.876;2023-02-04T10:24:13;5.27;;;2.30;;
56399;SDS011;42298;53.638;9.876;2023-02-04T10:26:41;4.90;;;2.10;;
56399;SDS011;42298;53.638;9.876;2023-02-04T10:29:07;4.50;;;2.10;;
56399;SDS011;42298;53.638;9.876;2023-02-04T10:31:38;3.77;;;2.37;;
56399;SDS011;42298;53.638;9.876;2023-02-04T10:34:08;3.90;;;2.30;;
56399;SDS011;42298;53.638;9.876;2023-02-04T10:36:45;5.67;;;2.30;;
56399;SDS011;42298;53.638;9.876;2023-02-04T10:39:15;3.57;;;2.07;;
56399;SDS011;42298;53.638;9.876;2023-02-04T10:41:45;3.17;;;2.00;;
56399;SDS011;42298;53.638;9.876;2023-02-04T10:44:33;3.93;;;2.47;;
56399;SDS011;42298;53.638;9.876;2023-02-04T10:47:12;3.13;;;2.00;;
56399;SDS011;42298;53.638;9.876;2023-02-04T10:49:41;4.10;;;2.30;;
56399;SDS011;42298;53.638;9.876;2023-02-04T10:52:21;6.00;;;2.50;;
56399;SDS011;42298;53.638;9.876;2023-02-04T10:54:57;4.20;;;2.10;;
56399;SDS011;42298;53.638;9.876;2023-02-04T10:57:25;4.17;;;2.20;;
56399;SDS011;42298;53.638;9.876;2023-02-04T10:59:53;3.20;;;2.10;;
56399;SDS011;42298;53.638;9.876;2023-02-04T11:02:32;2.07;;;1.60;;
56399;SDS011;42298;53.638;9.876;2023-02-04T11:05:03;3.37;;;1.70;;
56399;SDS011;42298;53.638;9.876;2023-02-04T11:07:35;4.13;;;1.67;;
56399;SDS011;42298;53.638;9.876;2023-02-04T11:10:00;2.73;;;1.63;;
56399;SDS011;42298;53.638;9.876;2023-02-04T11:12:37;4.17;;;2.23;;
56399;SDS011;42298;53.638;9.876;2023-02-04T11:15:03;2.30;;;1.60;;
56399;SDS011;42298;53.638;9.876;2023-02-04T11:17:32;2.00;;;1.53;;
56399;SDS011;42298;53.638;9.876;2023-02-04T11:19:59;3.30;;;1.90;;
56399;SDS011;42298;53.638;9.876;2023-02-04T11:22:44;3.23;;;1.90;;
56399;SDS011;42298;53.638;9.876;2023-02-04T11:25:30;3.37;;;2.13;;
56399;SDS011;42298;53.638;9.876;2023-02-04T11:27:59;3.10;;;1.90;;
56399;SDS011;42298;53.638;9.876;2023-02-04T11:30:36;4.10;;;2.00;;
56399;SDS011;42298;53.638;9.876;2023-02-04T11:33:05;5.13;;;2.10;;
56399;SDS011;42298;53.638;9.876;2023-02-04T11:36:01;2.93;;;1.90;;
56399;SDS011;42298;53.638;9.876;2023-02-04T11:38:28;3.80;;;1.90;;
56399;SDS011;42298;53.638;9.876;2023-02-04T11:40:56;3.30;;;2.00;;
56399;SDS011;42298;53.638;9.876;2023-02-04T11:43:22;6.87;;;2.50;;
56399;SDS011;42298;53.638;9.876;2023-02-04T11:45:48;5.27;;;2.40;;
56399;SDS011;42298;53.638;9.876;2023-02-04T11:48:24;3.80;;;2.23;;
56399;SDS011;42298;53.638;9.876;2023-02-04T11:50:58;4.53;;;1.83;;
56399;SDS011;42298;53.638;9.876;2023-02-04T11:53:29;4.13;;;2.00;;
56399;SDS011;42298;53.638;9.876;2023-02-04T11:55:56;4.53;;;2.00;;
56399;SDS011;42298;53.638;9.876;2023-02-04T11:58:22;3.77;;;1.90;;
56399;SDS011;42298;53.638;9.876;2023-02-04T12:00:50;5.07;;;2.00;;
56399;SDS011;42298;53.638;9.876;2023-02-04T12:03:35;4.60;;;1.83;;
56399;SDS011;42298;53.638;9.876;2023-02-04T12:06:18;2.90;;;1.77;;
56399;SDS011;42298;53.638;9.876;2023-02-04T12:08:45;3.37;;;1.80;;
56399;SDS011;42298;53.638;9.876;2023-02-04T12:11:12;4.27;;;1.90;;
56399;SDS011;42298;53.638;9.876;2023-02-04T12:13:54;4.20;;;2.03;;
56399;SDS011;42298;53.638;9.876;2023-02-04T12:16:22;4.07;;;1.93;;
56399;SDS011;42298;53.638;9.876;2023-02-04T12:18:48;4.07;;;1.90;;
56399;SDS011;42298;53.638;9.876;2023-02-04T12:21:14;3.77;;;1.80;;
56399;SDS011;42298;53.638;9.876;2023-02-04T12:23:40;4.17;;;2.00;;
56399;SDS011;42298;53.638;9.876;2023-02-04T12:26:07;4.67;;;1.97;;
56399;SDS011;42298;53.638;9.876;2023-02-04T12:28:33;2.83;;;2.23;;
56399;SDS011;42298;53.638;9.876;2023-02-04T12:30:58;2.70;;;1.83;;
56399;SDS011;42298;53.638;9.876;2023-02-04T12:33:24;4.67;;;2.00;;
56399;SDS011;42298;53.638;9.876;2023-02-04T12:35:50;3.87;;;1.67;;
56399;SDS011;42298;53.638;9.876;2023-02-04T12:38:17;3.73;;;1.93;;
56399;SDS011;42298;53.638;9.876;2023-02-04T12:40:43;2.40;;;1.80;;
56399;SDS011;42298;53.638;9.876;2023-02-04T12:43:09;3.57;;;1.93;;
56399;SDS011;42298;53.638;9.876;2023-02-04T12:45:34;4.20;;;2.20;;
56399;SDS011;42298;53.638;9.876;2023-02-04T12:48:00;7.20;;;2.50;;
56399;SDS011;42298;53.638;9.876;2023-02-04T12:50:25;5.33;;;2.20;;
56399;SDS011;42298;53.638;9.876;2023-02-04T12:52:52;3.50;;;2.10;;
56399;SDS011;42298;53.638;9.876;2023-02-04T12:55:19;5.20;;;2.40;;
56399;SDS011;42298;53.638;9.876;2023-02-04T12:57:45;4.70;;;2.20;;
56399;SDS011;42298;53.638;9.876;2023-02-04T13:00:11;3.97;;;2.13;;
56399;SDS011;42298;53.638;9.876;2023-02-04T13:02:38;4.00;;;2.13;;
56399;SDS011;42298;53.638;9.876;2023-02-04T13:05:03;3.40;;;2.40;;
56399;SDS011;42298;53.638;9.876;2023-02-04T13:07:31;3.37;;;2.00;;
56399;SDS011;42298;53.638;9.876;2023-02-04T13:09:57;5.17;;;2.67;;
56399;SDS011;42298;53.638;9.876;2023-02-04T13:12:23;6.57;;;2.43;;
56399;SDS011;42298;53.638;9.876;2023-02-04T13:14:48;4.93;;;2.43;;
56399;SDS011;42298;53.638;9.876;2023-02-04T13:17:14;4.60;;;2.57;;
56399;SDS011;42298;53.638;9.876;2023-02-04T13:19:39;4.80;;;2.50;;
56399;SDS011;42298;53.638;9.876;2023-02-04T13:22:04;5.83;;;2.27;;
56399;SDS011;42298;53.638;9.876;2023-02-04T13:24:30;5.03;;;2.20;;
56399;SDS011;42298;53.638;9.876;2023-02-04T13:26:56;5.87;;;2.77;;
56399;SDS011;42298;53.638;9.876;2023-02-04T13:29:21;4.10;;;2.30;;
56399;SDS011;42298;53.638;9.876;2023-02-04T13:31:47;4.03;;;2.37;;
56399;SDS011;42298;53.638;9.876;2023-02-04T13:34:12;4.37;;;2.40;;
56399;SDS011;42298;53.638;9.876;2023-02-04T13:36:38;6.17;;;2.27;;
56399;SDS011;42298;53.638;9.876;2023-02-04T13:39:03;3.80;;;2.20;;
56399;SDS011;42298;53.638;9.876;2023-02-04T13:41:29;5.77;;;2.10;;
56399;SDS011;42298;53.638;9.876;2023-02-04T13:43:54;4.37;;;2.10;;
56399;SDS011;42298;53.638;9.876;2023-02-04T13:46:21;5.77;;;2.30;;
56399;SDS011;42298;53.638;9.876;2023-02-04T13:48:47;3.87;;;2.33;;
56399;SDS011;42298;53.638;9.876;2023-02-04T13:51:13;4.93;;;2.40;;
56399;SDS011;42298;53.638;9.876;2023-02-04T13:53:39;4.93;;;2.03;;
56399;SDS011;42298;53.638;9.876;2023-02-04T13:56:04;6.43;;;2.57;;
56399;SDS011;42298;53.638;9.876;2023-02-04T13:58:30;5.10;;;2.33;;
56399;SDS011;42298;53.638;9.876;2023-02-04T14:00:55;4.17;;;2.43;;
56399;SDS011;42298;53.638;9.876;2023-02-04T14:03:24;6.80;;;2.37;;
56399;SDS011;42298;53.638;9.876;2023-02-04T14:05:51;3.97;;;2.10;;
56399;SDS011;42298;53.638;9.876;2023-02-04T14:08:17;2.93;;;2.00;;
56399;SDS011;42298;53.638;9.876;2023-02-04T14:10:43;3.77;;;2.13;;
56399;SDS011;42298;53.638;9.876;2023-02-04T14:13:08;4.77;;;2.50;;
56399;SDS011;42298;53.638;9.876;2023-02-04T14:15:34;4.53;;;2.50;;
56399;SDS011;42298;53.638;9.876;2023-02-04T14:18:01;8.53;;;2.33;;
56399;SDS011;42298;53.638;9.876;2023-02-04T14:20:28;4.90;;;2.60;;
56399;SDS011;42298;53.638;9.876;2023-02-04T14:22:54;4.97;;;2.37;;
56399;SDS011;42298;53.638;9.876;2023-02-04T14:25:19;6.30;;;2.10;;
56399;SDS011;42298;53.638;9.876;2023-02-04T14:27:45;5.87;;;2.63;;
56399;SDS011;42298;53.638;9.876;2023-02-04T14:30:20;8.33;;;2.60;;
56399;SDS011;42298;53.638;9.876;2023-02-04T14:32:47;19.67;;;12.00;;
56399;SDS011;42298;53.638;9.876;2023-02-04T14:35:13;7.10;;;2.73;;
56399;SDS011;42298;53.638;9.876;2023-02-04T14:37:40;4.87;;;2.50;;
56399;SDS011;42298;53.638;9.876;2023-02-04T14:40:06;6.03;;;2.80;;
56399;SDS011;42298;53.638;9.876;2023-02-04T14:42:32;5.53;;;2.40;;
56399;SDS011;42298;53.638;9.876;2023-02-04T14:44:58;4.57;;;2.23;;
56399;SDS011;42298;53.638;9.876;2023-02-04T14:47:23;4.93;;;2.10;;